Time;durP1;ratioP1;P1;durP2;ratioP2;P2;SDS_P1;SDS_P2;PMS_P1;PMS_P2;Temp;Humidity;BMP_temperature;BMP_pressure;BME280_temperature;BME280_humidity;BME280_pressure;Samples;Min_cycle;Max_cycle;Signal;HPM_P1;HPM_P2
2022/10/16 00:00:15;;;;;;;9.18;2.78;;;;;;;19.59;57.33;100958.72;5040190;28;20091;-67
2022/10/16 00:02:41;;;;;;;8.65;2.10;;;;;;;19.25;58.16;100964.03;5040687;28;20041;-66
2022/10/16 00:05:06;;;;;;;5.85;1.98;;;;;;;19.48;57.34;100959.84;5042493;28;20068;-65
2022/10/16 00:07:32;;;;;;;7.95;2.20;;;;;;;19.50;57.29;100954.94;5039681;28;20179;-66
2022/10/16 00:09:57;;;;;;;9.30;2.42;;;;;;;19.11;58.09;100962.19;5040041;28;20033;-66
2022/10/16 00:12:22;;;;;;;15.27;3.17;;;;;;;19.35;57.92;100954.22;5033637;28;20061;-66
2022/10/16 00:14:48;;;;;;;8.43;1.80;;;;;;;19.28;57.99;100959.94;5013342;28;20501;-66
2022/10/16 00:17:13;;;;;;;6.88;2.20;;;;;;;19.52;57.11;100955.47;5031798;28;20030;-66
2022/10/16 00:19:38;;;;;;;5.35;1.75;;;;;;;18.91;58.98;100968.50;5031324;28;20520;-66
2022/10/16 00:22:04;;;;;;;12.10;2.25;;;;;;;18.58;59.67;100960.97;5031163;28;20096;-66
2022/10/16 00:24:29;;;;;;;6.80;2.30;;;;;;;18.72;59.23;100953.03;5031097;28;20501;-65
2022/10/16 00:26:55;;;;;;;9.52;2.17;;;;;;;19.11;58.42;100956.72;5031142;28;20033;-67
2022/10/16 00:29:20;;;;;;;4.15;2.38;;;;;;;18.74;58.99;100956.31;5047592;28;20025;-66
2022/10/16 00:31:45;;;;;;;9.70;1.88;;;;;;;18.93;58.27;100957.34;5035629;28;20029;-66
2022/10/16 00:34:11;;;;;;;9.63;2.20;;;;;;;19.00;58.52;100966.88;5034834;28;20045;-66
2022/10/16 00:36:36;;;;;;;9.52;2.15;;;;;;;18.79;59.41;100968.00;5034961;28;20068;-66
2022/10/16 00:39:02;;;;;;;5.78;2.15;;;;;;;18.63;59.50;100966.44;5033945;28;20091;-66
2022/10/16 00:41:28;;;;;;;5.35;1.95;;;;;;;19.01;58.09;100963.03;5048680;28;20413;-66
2022/10/16 00:43:59;;;;;;;6.82;2.13;;;;;;;18.59;59.35;100957.19;5035473;28;20099;-66
2022/10/16 00:46:28;;;;;;;11.00;2.60;;;;;;;18.82;58.74;100958.47;5034528;28;20132;-66
2022/10/16 00:49:10;;;;;;;11.00;2.67;;;;;;;18.97;58.28;100959.25;5034854;28;20053;-67
2022/10/16 00:51:42;;;;;;;9.75;2.13;;;;;;;18.83;58.51;100963.63;5034365;28;20049;-67
2022/10/16 00:54:13;;;;;;;5.60;1.88;;;;;;;18.14;60.20;100962.63;5034672;28;20128;-65
2022/10/16 00:56:39;;;;;;;9.82;2.55;;;;;;;18.11;61.41;100963.97;5034520;28;20167;-66
2022/10/16 00:59:13;;;;;;;13.27;2.63;;;;;;;18.87;58.40;100959.25;5034908;28;20663;-65
2022/10/16 01:01:39;;;;;;;5.63;2.22;;;;;;;19.21;57.31;100959.41;5034534;28;20125;-66
2022/10/16 01:04:04;;;;;;;8.15;3.55;;;;;;;19.15;57.62;100961.34;5034108;28;20041;-67
2022/10/16 01:06:42;;;;;;;5.70;2.22;;;;;;;19.40;56.69;100960.44;5034498;28;20044;-66
2022/10/16 01:09:17;;;;;;;6.72;2.20;;;;;;;18.95;58.06;100963.31;5036549;28;20418;-66
2022/10/16 01:12:00;;;;;;;5.50;2.00;;;;;;;18.73;59.11;100971.81;5034155;28;20124;-66
2022/10/16 01:14:48;;;;;;;4.88;2.10;;;;;;;18.38;60.37;100963.69;5034244;28;20109;-65
2022/10/16 01:17:29;;;;;;;8.95;2.58;;;;;;;19.05;57.75;100964.13;5034492;28;20041;-66
2022/10/16 01:20:15;;;;;;;6.45;1.83;;;;;;;17.98;60.84;100960.97;5034250;28;20049;-65
2022/10/16 01:22:59;;;;;;;7.10;2.47;;;;;;;18.79;58.56;100959.84;5032673;28;20045;-66
2022/10/16 01:25:59;;;;;;;4.47;2.63;;;;;;;18.96;58.14;100956.81;5033945;28;20128;-66
2022/10/16 01:28:32;;;;;;;5.15;1.95;;;;;;;18.77;58.68;100955.78;5033478;28;20692;-66
2022/10/16 01:31:01;;;;;;;3.65;1.52;;;;;;;19.34;57.30;100956.09;5033853;28;20472;-64
2022/10/16 01:33:46;;;;;;;4.25;2.15;;;;;;;18.93;58.18;100954.63;5033673;28;20752;-65
2022/10/16 01:36:25;;;;;;;5.78;2.00;;;;;;;19.28;57.09;100954.50;5033681;28;20038;-66
2022/10/16 01:38:54;;;;;;;5.40;2.00;;;;;;;19.30;57.06;100944.13;5033540;28;20485;-66
2022/10/16 01:41:33;;;;;;;11.05;2.17;;;;;;;18.73;58.91;100943.81;5032936;28;20104;-66
2022/10/16 01:44:16;;;;;;;3.72;1.70;;;;;;;19.23;56.49;100949.88;5034236;28;20025;-66
2022/10/16 01:46:45;;;;;;;3.85;1.92;;;;;;;18.54;58.74;100951.72;5033642;28;20137;-66
2022/10/16 01:49:13;;;;;;;8.95;2.28;;;;;;;18.92;59.08;100951.09;5033430;28;20046;-65
2022/10/16 01:51:39;;;;;;;5.65;2.13;;;;;;;18.80;59.09;100953.31;5033539;28;20589;-66
2022/10/16 01:54:07;;;;;;;6.10;2.10;;;;;;;18.67;59.28;100956.59;5033767;28;20049;-69
2022/10/16 01:56:34;;;;;;;2.83;1.73;;;;;;;18.72;59.12;100953.88;5033345;28;20033;-66
2022/10/16 01:59:06;;;;;;;7.55;1.60;;;;;;;18.77;58.96;100944.88;5033878;28;20087;-65
2022/10/16 02:01:34;;;;;;;3.67;1.65;;;;;;;18.74;59.38;100942.69;5033411;28;20048;-66
2022/10/16 02:04:07;;;;;;;7.20;1.98;;;;;;;19.16;58.26;100943.91;5033354;28;20041;-65
2022/10/16 02:06:32;;;;;;;4.72;1.60;;;;;;;19.26;57.79;100945.78;5035786;28;20046;-65
2022/10/16 02:08:59;;;;;;;9.00;3.38;;;;;;;18.92;58.72;100951.09;5033364;28;20033;-66
2022/10/16 02:11:24;;;;;;;6.00;1.98;;;;;;;18.98;59.03;100957.34;5033004;28;20044;-65
2022/10/16 02:14:01;;;;;;;5.65;2.10;;;;;;;18.81;58.97;100952.19;5033746;28;20017;-68
2022/10/16 02:16:39;;;;;;;3.25;1.83;;;;;;;18.62;59.88;100948.44;5032902;28;20049;-66
2022/10/16 02:19:05;;;;;;;6.55;2.15;;;;;;;19.24;58.77;100945.25;5032962;28;20038;-65
2022/10/16 02:21:46;;;;;;;17.58;3.72;;;;;;;19.17;58.71;100939.28;5033302;28;20050;-67
2022/10/16 02:24:21;;;;;;;7.70;2.00;;;;;;;19.36;57.98;100931.31;5032948;28;20544;-66
2022/10/16 02:27:01;;;;;;;4.45;1.48;;;;;;;19.47;57.28;100941.06;5032933;28;20026;-66
2022/10/16 02:29:27;;;;;;;4.75;1.85;;;;;;;18.71;59.95;100937.81;5033008;28;20120;-66
2022/10/16 02:32:02;;;;;;;4.40;1.70;;;;;;;18.75;60.06;100936.97;5033583;28;20558;-65
2022/10/16 02:34:30;;;;;;;4.57;1.50;;;;;;;18.00;62.19;100954.19;5032599;28;20046;-67
2022/10/16 02:36:58;;;;;;;5.93;1.63;;;;;;;18.65;60.92;100956.06;5015360;28;20046;-67
2022/10/16 02:39:24;;;;;;;5.18;1.92;;;;;;;18.74;60.36;100959.03;5012942;28;20714;-66
2022/10/16 02:41:50;;;;;;;7.65;2.72;;;;;;;19.00;59.26;100953.25;5012991;28;20057;-65
2022/10/16 02:44:15;;;;;;;3.70;1.92;;;;;;;19.13;58.99;100938.19;5012241;28;20505;-66
2022/10/16 02:46:40;;;;;;;8.38;1.88;;;;;;;18.86;60.45;100938.59;5012839;28;20042;-66
2022/10/16 02:49:06;;;;;;;5.95;2.08;;;;;;;18.77;60.37;100940.22;5012666;28;20038;-66
2022/10/16 02:51:31;;;;;;;3.92;1.98;;;;;;;18.69;60.53;100948.16;5007858;28;20038;-67
2022/10/16 02:53:57;;;;;;;5.93;3.22;;;;;;;18.87;59.89;100953.81;4993750;28;20038;-66
2022/10/16 02:56:22;;;;;;;7.22;2.45;;;;;;;18.80;60.34;100956.03;5012791;28;20092;-69
2022/10/16 02:58:47;;;;;;;2.67;1.88;;;;;;;19.13;59.47;100955.38;5012841;28;20088;-65
2022/10/16 03:01:14;;;;;;;4.97;2.30;;;;;;;18.70;61.19;100957.94;5015029;28;20045;-66
2022/10/16 03:03:39;;;;;;;5.32;1.88;;;;;;;18.89;60.51;100962.53;5012627;28;20030;-66
2022/10/16 03:06:05;;;;;;;4.53;2.10;;;;;;;18.63;61.00;100979.22;5011016;28;20046;-67
2022/10/16 03:08:31;;;;;;;7.07;2.03;;;;;;;18.70;60.88;100988.72;5012417;28;20598;-67
2022/10/16 03:10:56;;;;;;;7.82;2.25;;;;;;;18.90;60.40;100985.13;5013207;28;20084;-66
2022/10/16 03:13:21;;;;;;;3.40;2.00;;;;;;;18.98;60.48;100988.13;5032383;28;20033;-66
2022/10/16 03:15:47;;;;;;;4.30;2.20;;;;;;;19.09;60.22;100992.44;5031996;28;20041;-67
2022/10/16 03:18:13;;;;;;;5.22;2.20;;;;;;;19.00;60.63;100999.56;5032210;28;20029;-66
2022/10/16 03:20:38;;;;;;;7.40;2.35;;;;;;;19.09;60.25;101003.31;5031635;28;20037;-65
2022/10/16 03:23:04;;;;;;;6.13;3.08;;;;;;;18.42;62.09;101006.44;5032469;28;20596;-67
2022/10/16 03:25:29;;;;;;;6.68;2.30;;;;;;;18.80;61.24;100999.59;5031809;28;20030;-67
2022/10/16 03:27:54;;;;;;;8.52;2.50;;;;;;;18.93;60.34;101009.09;5031932;28;20033;-66
2022/10/16 03:30:20;;;;;;;11.35;4.25;;;;;;;18.92;61.10;100997.41;5031900;28;20048;-66
2022/10/16 03:32:46;;;;;;;3.97;2.05;;;;;;;19.02;60.71;100996.53;5031679;28;20037;-66
2022/10/16 03:35:11;;;;;;;4.63;2.55;;;;;;;18.75;61.45;100994.16;5029112;28;20069;-66
2022/10/16 03:37:36;;;;;;;5.55;2.58;;;;;;;19.41;59.64;100980.34;5011905;28;20041;-65
2022/10/16 03:40:03;;;;;;;6.22;2.85;;;;;;;18.80;60.50;100988.72;5011869;28;20046;-67
2022/10/16 03:42:29;;;;;;;4.90;2.72;;;;;;;18.81;60.98;100987.59;5011836;28;20038;-66
2022/10/16 03:44:54;;;;;;;6.15;2.92;;;;;;;18.85;60.90;100987.88;5011857;28;20041;-66
2022/10/16 03:47:21;;;;;;;5.18;1.98;;;;;;;18.75;61.80;100996.88;5011835;28;20045;-66
2022/10/16 03:49:47;;;;;;;3.55;2.00;;;;;;;19.09;60.37;100997.88;5012422;28;20095;-66
2022/10/16 03:52:13;;;;;;;3.95;2.75;;;;;;;19.16;59.79;100998.38;5011867;28;20049;-66
2022/10/16 03:54:38;;;;;;;6.55;2.97;;;;;;;18.41;63.19;100998.53;5011921;28;20061;-67
2022/10/16 03:57:04;;;;;;;7.55;3.45;;;;;;;18.26;63.16;100991.16;5012883;28;20033;-66
2022/10/16 03:59:29;;;;;;;7.47;2.88;;;;;;;19.32;60.01;100990.97;5012977;28;20034;-66
2022/10/16 04:01:55;;;;;;;6.05;2.55;;;;;;;18.98;60.67;101004.47;5009478;28;20021;-65
2022/10/16 04:04:20;;;;;;;8.00;3.08;;;;;;;18.80;61.16;101004.22;5012386;28;20042;-66
2022/10/16 04:06:46;;;;;;;5.22;2.30;;;;;;;18.52;62.46;101021.94;5015111;28;20034;-67
2022/10/16 04:09:12;;;;;;;9.13;2.95;;;;;;;18.41;63.02;101020.28;5015078;28;20108;-65
2022/10/16 04:11:38;;;;;;;5.20;2.60;;;;;;;18.49;63.14;101036.13;5013928;28;20733;-66
2022/10/16 04:14:04;;;;;;;4.72;3.00;;;;;;;18.14;63.66;101028.69;5015767;28;20026;-67
2022/10/16 04:16:29;;;;;;;3.83;2.33;;;;;;;18.37;63.07;101025.47;5015597;28;20685;-66
2022/10/16 04:18:54;;;;;;;9.45;3.15;;;;;;;18.80;62.06;101031.44;5015265;28;20069;-66
2022/10/16 04:21:20;;;;;;;5.53;2.70;;;;;;;18.74;62.01;101029.81;5015213;28;20042;-66
2022/10/16 04:23:45;;;;;;;7.25;2.67;;;;;;;18.30;63.73;101033.06;5015249;28;20370;-66
2022/10/16 04:26:11;;;;;;;10.48;3.45;;;;;;;17.89;65.03;101042.25;5015619;28;20042;-66
2022/10/16 04:28:36;;;;;;;5.80;2.97;;;;;;;18.08;64.78;101042.59;5015342;28;20517;-66
2022/10/16 04:31:04;;;;;;;5.43;2.22;;;;;;;18.78;61.91;101039.91;5015362;28;20038;-66
2022/10/16 04:33:29;;;;;;;6.53;2.88;;;;;;;18.98;61.54;101050.75;5020180;28;20060;-66
2022/10/16 04:35:59;;;;;;;5.75;2.60;;;;;;;18.62;61.83;101054.59;5034570;28;20052;-67
2022/10/16 04:38:24;;;;;;;4.93;2.10;;;;;;;18.44;62.49;101060.59;5034823;28;20049;-67
2022/10/16 04:40:50;;;;;;;4.38;2.40;;;;;;;18.21;63.97;101058.38;5035046;28;20437;-66
2022/10/16 04:43:15;;;;;;;4.45;2.00;;;;;;;18.41;63.25;101059.22;5034328;28;20052;-65
2022/10/16 04:45:41;;;;;;;4.22;2.50;;;;;;;19.00;61.54;101062.19;5034695;28;20506;-65
2022/10/16 04:48:06;;;;;;;4.30;2.33;;;;;;;18.50;62.95;101062.22;5033362;28;20047;-65
2022/10/16 04:50:31;;;;;;;5.97;2.40;;;;;;;18.76;62.12;101074.75;5034311;28;20045;-66
2022/10/16 04:52:57;;;;;;;5.55;2.42;;;;;;;18.56;62.85;101079.38;5035232;28;20021;-66
2022/10/16 04:55:22;;;;;;;6.93;2.60;;;;;;;18.70;62.20;101081.28;5034242;28;20045;-65
2022/10/16 04:57:48;;;;;;;6.10;2.50;;;;;;;18.33;63.30;101081.53;5033078;28;20044;-66
2022/10/16 05:00:13;;;;;;;5.38;2.92;;;;;;;18.15;63.51;101084.75;5034738;28;20044;-66
2022/10/16 05:02:39;;;;;;;4.95;2.42;;;;;;;18.58;62.77;101085.34;5034747;28;20113;-66
2022/10/16 05:05:05;;;;;;;4.57;2.45;;;;;;;18.24;63.33;101085.03;5034932;28;20474;-66
2022/10/16 05:07:30;;;;;;;5.78;2.40;;;;;;;18.29;63.45;101085.88;5034292;28;20033;-66
2022/10/16 05:09:56;;;;;;;11.25;2.55;;;;;;;18.53;63.07;101088.91;5034454;28;20045;-66
2022/10/16 05:12:21;;;;;;;5.82;2.72;;;;;;;17.91;64.95;101094.47;5034357;28;20033;-67
2022/10/16 05:14:46;;;;;;;8.10;2.25;;;;;;;18.26;64.26;101096.44;5034027;28;20040;-66
2022/10/16 05:17:12;;;;;;;3.97;2.00;;;;;;;18.30;63.63;101092.94;5034816;28;20425;-66
2022/10/16 05:19:37;;;;;;;6.35;2.28;;;;;;;18.47;63.41;101097.34;5033867;28;20555;-67
2022/10/16 05:22:03;;;;;;;4.55;2.17;;;;;;;18.52;63.16;101100.88;5034334;28;20025;-66
2022/10/16 05:24:28;;;;;;;6.38;2.22;;;;;;;18.33;63.43;101097.84;5034292;28;20107;-66
2022/10/16 05:26:53;;;;;;;3.38;2.15;;;;;;;18.57;62.91;101102.78;5034043;28;20040;-66
2022/10/16 05:29:19;;;;;;;4.13;1.90;;;;;;;18.62;62.50;101103.59;5034279;28;20030;-66
2022/10/16 05:31:44;;;;;;;5.78;2.13;;;;;;;18.84;61.44;101103.34;5034285;28;20033;-66
2022/10/16 05:34:10;;;;;;;2.75;1.80;;;;;;;18.06;63.43;101108.09;5033520;28;20493;-67
2022/10/16 05:36:35;;;;;;;5.68;2.47;;;;;;;18.46;63.42;101106.56;5033226;28;20052;-65
2022/10/16 05:39:01;;;;;;;6.63;2.20;;;;;;;18.14;63.93;101113.03;5033524;28;20490;-66
2022/10/16 05:41:26;;;;;;;3.45;1.88;;;;;;;17.76;65.30;101120.78;5033753;28;20493;-67
2022/10/16 05:43:53;;;;;;;6.00;2.10;;;;;;;18.22;63.52;101112.50;5034058;28;20036;-66
2022/10/16 05:46:19;;;;;;;4.80;1.80;;;;;;;17.60;66.04;101108.19;5033482;28;20037;-65
2022/10/16 05:48:44;;;;;;;3.15;1.75;;;;;;;18.07;64.84;101126.06;5032294;28;20045;-66
2022/10/16 05:51:12;;;;;;;3.22;1.92;;;;;;;18.19;63.96;101118.50;5035547;28;20037;-67
2022/10/16 05:53:38;;;;;;;3.65;1.60;;;;;;;18.22;64.25;101119.88;5033385;28;20026;-65
2022/10/16 05:56:06;;;;;;;7.35;2.10;;;;;;;18.18;63.48;101135.09;5035605;28;20037;-66
2022/10/16 05:58:35;;;;;;;4.90;2.00;;;;;;;17.97;64.96;101134.19;5031533;28;20038;-68
2022/10/16 06:01:15;;;;;;;4.60;1.92;;;;;;;17.89;64.94;101134.69;5031387;28;20437;-65
2022/10/16 06:03:40;;;;;;;5.13;1.67;;;;;;;17.72;66.01;101144.16;5029183;28;20029;-67
2022/10/16 06:06:14;;;;;;;7.30;1.77;;;;;;;18.08;64.56;101148.66;5031518;28;20045;-66
2022/10/16 06:08:41;;;;;;;3.53;1.73;;;;;;;17.98;65.26;101154.88;5029847;28;20109;-65
2022/10/16 06:11:11;;;;;;;2.75;1.55;;;;;;;18.32;64.20;101156.06;5032220;28;20033;-66
2022/10/16 06:13:37;;;;;;;4.35;2.85;;;;;;;18.01;64.90;101159.78;5031843;28;20053;-66
2022/10/16 06:16:03;;;;;;;4.78;3.08;;;;;;;17.93;65.30;101168.44;5031560;28;20183;-66
2022/10/16 06:18:29;;;;;;;5.25;1.77;;;;;;;18.01;65.09;101170.66;5031580;28;20021;-67
2022/10/16 06:20:56;;;;;;;3.78;2.10;;;;;;;17.99;64.76;101174.72;5031000;28;20037;-65
2022/10/16 06:23:21;;;;;;;8.30;2.08;;;;;;;17.82;65.90;101177.66;5031348;28;20420;-65
2022/10/16 06:25:47;;;;;;;3.20;1.90;;;;;;;17.97;65.35;101174.97;5031324;28;20036;-66
2022/10/16 06:28:14;;;;;;;8.98;2.42;;;;;;;18.22;63.86;101180.50;5029919;28;20657;-66
2022/10/16 06:30:40;;;;;;;4.70;1.83;;;;;;;18.27;64.43;101185.16;5030347;28;20037;-65
2022/10/16 06:33:05;;;;;;;6.50;2.45;;;;;;;18.54;63.45;101187.69;5032274;28;20041;-66
2022/10/16 06:35:31;;;;;;;3.33;2.20;;;;;;;18.25;64.08;101187.34;5021045;28;20132;-67
2022/10/16 06:37:57;;;;;;;9.00;2.47;;;;;;;18.74;62.48;101187.75;5032455;28;20127;-65
2022/10/16 06:40:22;;;;;;;5.30;2.08;;;;;;;18.16;64.55;101194.38;5031753;28;20057;-65
2022/10/16 06:42:48;;;;;;;4.80;2.10;;;;;;;17.74;65.62;101199.06;5031951;28;20034;-65
2022/10/16 06:45:13;;;;;;;11.20;2.30;;;;;;;18.07;65.24;101206.84;5031850;28;20052;-66
2022/10/16 06:47:39;;;;;;;4.93;2.25;;;;;;;18.50;63.02;101211.09;5018164;28;20037;-66
2022/10/16 06:50:06;;;;;;;7.45;3.95;;;;;;;18.29;64.32;101221.91;5012447;28;20513;-66
2022/10/16 06:52:33;;;;;;;6.15;2.03;;;;;;;18.47;63.65;101219.81;5012120;28;20121;-66
2022/10/16 06:54:58;;;;;;;5.45;1.90;;;;;;;18.23;64.27;101222.97;5012417;28;20061;-66
2022/10/16 06:57:24;;;;;;;5.60;2.40;;;;;;;18.10;65.19;101233.53;5010446;28;20022;-68
2022/10/16 06:59:49;;;;;;;6.45;1.88;;;;;;;17.90;65.45;101255.16;5017505;28;20048;-67
2022/10/16 07:02:14;;;;;;;12.10;2.70;;;;;;;18.30;64.65;101244.47;5021319;28;20036;-66
2022/10/16 07:04:40;;;;;;;13.23;2.25;;;;;;;18.13;65.41;101250.13;5018661;28;20122;-65
2022/10/16 07:07:05;;;;;;;5.25;1.85;;;;;;;17.94;65.84;101261.72;5018234;28;20865;-65
2022/10/16 07:09:31;;;;;;;8.02;1.58;;;;;;;17.70;66.95;101284.94;5024118;28;20029;-66
2022/10/16 07:11:56;;;;;;;5.40;2.20;;;;;;;17.58;67.74;101268.00;5021622;28;20486;-67
2022/10/16 07:14:22;;;;;;;4.85;1.35;;;;;;;17.21;69.63;101276.91;5031978;28;20572;-66
2022/10/16 07:16:48;;;;;;;3.20;1.33;;;;;;;17.36;69.34;101262.63;5032335;28;20038;-66
2022/10/16 07:19:17;;;;;;;6.60;1.63;;;;;;;17.51;68.84;101241.06;5012261;28;20033;-66
2022/10/16 07:21:42;;;;;;;11.82;1.80;;;;;;;18.21;67.24;101236.03;5011896;28;20092;-65
2022/10/16 07:24:13;;;;;;;6.30;2.60;;;;;;;18.32;66.90;101245.84;5012052;28;20081;-66
2022/10/16 07:26:40;;;;;;;8.43;2.13;;;;;;;17.76;68.54;101251.28;5011951;28;20058;-65
2022/10/16 07:29:13;;;;;;;6.05;2.72;;;;;;;18.32;67.25;101245.84;5010560;28;20036;-67
2022/10/16 07:31:39;;;;;;;9.32;2.90;;;;;;;18.29;66.97;101251.84;5010836;28;20124;-67
2022/10/16 07:34:05;;;;;;;6.70;3.00;;;;;;;18.66;65.49;101261.78;5013628;28;20392;-66
2022/10/16 07:36:30;;;;;;;4.70;3.40;;;;;;;18.59;66.60;101275.66;5011748;28;20041;-67
2022/10/16 07:38:56;;;;;;;7.07;3.80;;;;;;;18.50;66.24;101270.97;5018925;28;20041;-66
2022/10/16 07:41:21;;;;;;;10.38;3.83;;;;;;;19.17;64.38;101286.13;5044105;28;20037;-66
2022/10/16 07:43:48;;;;;;;6.30;4.75;;;;;;;18.88;65.50;101286.88;5019068;28;20030;-66
2022/10/16 07:46:14;;;;;;;14.60;4.10;;;;;;;18.18;68.13;101290.16;5011543;28;20103;-66
2022/10/16 07:48:39;;;;;;;10.68;4.10;;;;;;;18.72;66.36;101293.38;5011865;28;20040;-66
2022/10/16 07:51:06;;;;;;;7.18;5.13;;;;;;;18.91;65.40;101292.59;5011466;28;20116;-67
2022/10/16 07:53:32;;;;;;;17.83;3.20;;;;;;;18.70;66.01;101299.09;5011771;28;20021;-65
2022/10/16 07:56:01;;;;;;;6.05;4.07;;;;;;;18.81;65.44;101306.19;5017058;28;20490;-66
2022/10/16 07:58:27;;;;;;;8.18;3.25;;;;;;;19.08;64.83;101308.72;5011654;28;20055;-66
2022/10/16 08:00:53;;;;;;;6.57;4.13;;;;;;;19.05;64.51;101317.41;5011691;28;20064;-66
2022/10/16 08:03:18;;;;;;;12.90;3.40;;;;;;;18.60;65.63;101328.19;5011758;28;20514;-66
2022/10/16 08:05:44;;;;;;;9.80;3.22;;;;;;;18.52;66.68;101334.13;5014312;28;20046;-65
2022/10/16 08:08:13;;;;;;;3.08;2.50;;;;;;;18.54;66.07;101340.13;5018215;28;20079;-66
2022/10/16 08:10:38;;;;;;;9.98;3.15;;;;;;;18.71;65.70;101344.28;5020280;28;20034;-65
2022/10/16 08:13:04;;;;;;;6.03;2.50;;;;;;;18.56;65.22;101349.66;5017130;28;20095;-67
2022/10/16 08:15:29;;;;;;;7.72;2.53;;;;;;;18.85;64.44;101347.34;5016473;28;20053;-66
2022/10/16 08:18:02;;;;;;;5.97;2.53;;;;;;;18.75;65.15;101353.56;5017014;28;20037;-65
2022/10/16 08:20:29;;;;;;;8.15;2.80;;;;;;;18.55;64.95;101358.09;5011685;28;20518;-67
2022/10/16 08:22:55;;;;;;;6.18;3.05;;;;;;;18.36;65.45;101355.81;5011806;28;20565;-66
2022/10/16 08:25:22;;;;;;;5.40;2.22;;;;;;;18.58;65.20;101358.38;5026622;28;20042;-67
2022/10/16 08:27:47;;;;;;;10.55;2.05;;;;;;;19.13;63.09;101365.94;5011435;28;20038;-66
2022/10/16 08:30:13;;;;;;;7.78;2.38;;;;;;;18.97;64.10;101362.34;5011385;28;20034;-66
2022/10/16 08:32:38;;;;;;;11.48;2.45;;;;;;;19.01;63.73;101373.53;5011470;28;20026;-67
2022/10/16 08:35:04;;;;;;;6.85;2.55;;;;;;;18.90;63.65;101363.69;5027519;28;20045;-67
2022/10/16 08:37:31;;;;;;;4.95;1.73;;;;;;;19.09;62.81;101370.28;5030948;28;20050;-66
2022/10/16 08:39:57;;;;;;;7.70;2.08;;;;;;;19.13;62.55;101379.56;5042822;28;20082;-65
2022/10/16 08:42:34;;;;;;;5.13;1.55;;;;;;;18.77;62.96;101386.78;5051220;28;20140;-66
2022/10/16 08:45:21;;;;;;;7.85;2.20;;;;;;;19.43;61.57;101392.47;5050990;28;20128;-65
2022/10/16 08:47:58;;;;;;;6.20;3.03;;;;;;;19.54;60.97;101397.66;5051079;28;20089;-65
2022/10/16 08:50:27;;;;;;;7.63;1.70;;;;;;;19.23;61.33;101395.94;5042408;28;20056;-66
2022/10/16 08:52:54;;;;;;;5.10;1.98;;;;;;;19.21;61.33;101404.38;5035092;28;20022;-66
2022/10/16 08:55:34;;;;;;;9.35;1.48;;;;;;;19.59;61.05;101405.88;5034504;28;20521;-67
2022/10/16 08:58:00;;;;;;;8.27;1.75;;;;;;;19.15;61.27;101397.28;5034787;28;20374;-65
2022/10/16 09:00:27;;;;;;;2.85;1.30;;;;;;;19.49;60.40;101408.56;5034621;28;20034;-66
2022/10/16 09:03:22;;;;;;;1.60;0.95;;;;;;;19.30;61.98;101413.66;5034578;28;20037;-67
2022/10/16 09:05:51;;;;;;;5.35;1.60;;;;;;;19.59;60.33;101410.50;5034504;28;20498;-65
2022/10/16 09:08:34;;;;;;;9.82;1.60;;;;;;;19.59;60.52;101422.22;5034265;28;20036;-64
2022/10/16 09:11:10;;;;;;;11.52;1.50;;;;;;;19.51;60.69;101424.66;5034848;28;20128;-66
2022/10/16 09:13:46;;;;;;;12.43;1.83;;;;;;;19.08;61.76;101434.03;5034381;28;20446;-66
2022/10/16 09:16:39;;;;;;;8.77;1.88;;;;;;;20.34;58.33;101429.63;5034021;28;20076;-65
2022/10/16 09:19:28;;;;;;;13.80;1.75;;;;;;;19.94;59.30;101445.97;5034127;28;20033;-66
2022/10/16 09:21:55;;;;;;;7.70;1.52;;;;;;;19.38;59.83;101457.88;5034092;28;20095;-67
2022/10/16 09:24:24;;;;;;;14.27;2.92;;;;;;;19.58;59.12;101450.56;5034008;28;20385;-66
2022/10/16 09:26:50;;;;;;;9.20;1.85;;;;;;;19.89;58.26;101465.09;5033807;28;20033;-65
2022/10/16 09:29:19;;;;;;;14.95;2.20;;;;;;;20.13;57.35;101456.06;5032959;28;20045;-65
2022/10/16 09:31:45;;;;;;;7.30;2.22;;;;;;;20.17;57.75;101458.28;5034341;28;20502;-65
2022/10/16 09:34:34;;;;;;;5.93;2.00;;;;;;;20.38;56.80;101468.94;5033669;28;20103;-65
2022/10/16 09:37:02;;;;;;;16.30;1.77;;;;;;;19.82;58.33;101470.78;5032408;28;20042;-67
2022/10/16 09:39:28;;;;;;;10.45;2.40;;;;;;;20.48;56.44;101463.44;5033740;28;20041;-67
2022/10/16 09:41:56;;;;;;;9.38;1.92;;;;;;;20.55;56.28;101469.44;5032903;28;20040;-66
2022/10/16 09:44:27;;;;;;;9.48;1.75;;;;;;;20.63;55.61;101473.53;5042062;28;20033;-67
2022/10/16 09:47:14;;;;;;;12.02;2.25;;;;;;;20.80;54.77;101471.28;5040302;28;20045;-67
2022/10/16 09:49:50;;;;;;;8.68;1.50;;;;;;;21.04;54.62;101463.31;5044077;28;20086;-67
2022/10/16 09:52:20;;;;;;;13.40;3.13;;;;;;;21.13;54.36;101478.06;5043511;28;20041;-67
2022/10/16 09:54:53;;;;;;;10.65;1.50;;;;;;;20.35;54.92;101479.56;5034867;28;20385;-67
2022/10/16 09:57:20;;;;;;;11.77;2.25;;;;;;;20.44;54.83;101489.66;5033771;28;20528;-67
2022/10/16 09:59:52;;;;;;;9.65;1.65;;;;;;;20.11;54.33;101481.97;5033643;28;20056;-67
2022/10/16 10:02:23;;;;;;;7.68;1.75;;;;;;;20.33;53.75;101479.00;5032468;28;20466;-66
2022/10/16 10:04:55;;;;;;;9.55;1.45;;;;;;;20.49;54.42;101483.38;5033687;28;20044;-66
2022/10/16 10:07:26;;;;;;;12.95;2.30;;;;;;;20.37;54.46;101482.84;5029664;28;20498;-67
2022/10/16 10:09:52;;;;;;;;;;;;;;;20.38;54.25;101485.31;5046655;28;20494;-67
2022/10/16 10:12:25;;;;;;;11.27;1.90;;;;;;;20.42;53.97;101480.13;5050949;28;20031;-67
2022/10/16 10:14:52;;;;;;;9.13;1.77;;;;;;;21.32;51.26;101485.34;5053012;28;20400;-68
2022/10/16 10:17:22;;;;;;;4.30;1.25;;;;;;;21.02;50.90;101498.31;5053419;28;20099;-67
2022/10/16 10:20:21;;;;;;;15.20;2.50;;;;;;;21.22;52.43;101496.31;5053575;28;20079;-66
2022/10/16 10:22:46;;;;;;;23.27;2.72;;;;;;;21.55;51.59;101501.09;5052918;28;20052;-67
2022/10/16 10:25:12;;;;;;;8.50;1.48;;;;;;;21.18;51.98;101499.88;5051733;28;20036;-67
2022/10/16 10:27:56;;;;;;;6.15;1.30;;;;;;;20.77;51.87;101507.38;5032886;28;20163;-68
2022/10/16 10:31:05;;;;;;;10.48;3.05;;;;;;;21.72;50.54;101528.88;5032751;28;20112;-66
2022/10/16 10:33:59;;;;;;;12.85;1.70;;;;;;;20.98;51.34;101522.59;5010095;28;20451;-67
2022/10/16 10:36:38;;;;;;;11.00;1.42;;;;;;;21.91;50.13;101525.53;5009866;28;20034;-68
2022/10/16 10:39:20;;;;;;;11.10;2.08;;;;;;;21.83;49.89;101529.69;5015242;28;20368;-67
2022/10/16 10:42:32;;;;;;;14.60;3.35;;;;;;;21.05;50.95;101512.22;5029590;28;20052;-67
2022/10/16 10:45:13;;;;;;;14.65;2.42;;;;;;;21.43;49.91;101519.75;5029462;28;20053;-66
2022/10/16 10:47:53;;;;;;;;;;;;;;;21.84;49.54;101532.13;5025632;28;20092;-68
2022/10/16 10:50:24;;;;;;;11.13;1.85;;;;;;;21.39;49.91;101542.44;5018314;28;19917;-67
2022/10/16 10:53:09;;;;;;;14.63;1.80;;;;;;;21.70;50.04;101539.28;5015317;28;20029;-67
2022/10/16 10:56:06;;;;;;;7.30;1.52;;;;;;;21.37;50.12;101547.38;5020163;28;20029;-69
2022/10/16 10:59:00;;;;;;;15.05;1.67;;;;;;;21.51;49.56;101541.03;4931675;29;20106;-68
2022/10/16 11:02:02;;;;;;;6.72;2.05;;;;;;;20.73;49.36;101553.53;4930480;29;20508;-69
2022/10/16 11:05:08;;;;;;;15.60;2.50;;;;;;;21.72;47.95;101552.69;4864398;29;20145;-67
2022/10/16 11:07:40;;;;;;;13.48;2.08;;;;;;;21.60;47.65;101549.50;4862015;29;20048;-69
2022/10/16 11:10:20;;;;;;;10.85;1.77;;;;;;;21.63;48.10;101559.84;4866763;29;20041;-67
2022/10/16 11:12:52;;;;;;;6.55;1.63;;;;;;;22.44;47.03;101547.31;4882903;29;20081;-68
2022/10/16 11:15:24;;;;;;;8.70;1.83;;;;;;;21.44;48.10;101554.22;4884373;29;20158;-68
2022/10/16 11:18:04;;;;;;;25.27;4.53;;;;;;;22.77;45.92;101550.31;4883985;29;20052;-68
2022/10/16 11:20:33;;;;;;;11.10;1.73;;;;;;;22.96;44.33;101541.06;4883662;29;20733;-67
2022/10/16 11:23:11;;;;;;;13.23;1.85;;;;;;;22.21;44.82;101547.22;4869204;29;20044;-68
2022/10/16 11:25:39;;;;;;;5.93;1.65;;;;;;;22.82;44.89;101559.31;4887122;29;20044;-68
2022/10/16 11:28:10;;;;;;;12.38;1.95;;;;;;;23.26;43.85;101559.13;4883855;29;20049;-68
2022/10/16 11:30:46;;;;;;;7.43;1.45;;;;;;;22.79;44.44;101554.41;4884648;29;20199;-69
2022/10/16 11:33:40;;;;;;;5.57;1.42;;;;;;;22.78;43.47;101561.00;4880458;29;20041;-68
2022/10/16 11:36:19;;;;;;;9.60;1.88;;;;;;;23.27;43.87;101563.50;4870013;29;20050;-69